This is the latest recevied weather packets stored in our database for station/object 9M4GHZ-13. If no packets are shown the sender has not sent any weather packets the latest 10 day(s).
| Time | Temp. | Humidity | Pressure | Rain* | Wind** | Luminosity | Snow |
|---|---|---|---|---|---|---|---|
| 1777639805 | 26.67° C | 88% | 1008.5 hPa | - | - | - | - |
| 1777639205 | 26.67° C | 88% | 1008.2 hPa | - | - | - | - |
| 1777638605 | 26.67° C | 87% | 1008 hPa | - | - | - | - |
| 1777638015 | 26.11° C | 87% | 1007.8 hPa | - | - | - | - |
| 1777637404 | 26.11° C | 89% | 1007.6 hPa | - | - | - | - |
| 1777636809 | 26.67° C | 88% | 1007.5 hPa | - | - | - | - |
| 1777636212 | 26.11° C | 87% | 1007.2 hPa | - | - | - | - |
| 1777635608 | 26.67° C | 87% | 1007.4 hPa | - | - | - | - |
| 1777635009 | 26.67° C | 84% | 1007.4 hPa | - | - | - | - |
| 1777634414 | 26.67° C | 85% | 1007 hPa | - | - | - | - |
| 1777633808 | 26.67° C | 85% | 1006.8 hPa | - | - | - | - |
| 1777633210 | 26.67° C | 84% | 1006.9 hPa | - | - | - | - |
| 1777632610 | 26.67° C | 83% | 1006.5 hPa | - | - | - | - |
| 1777632009 | 27.22° C | 81% | 1006.6 hPa | - | - | - | - |
| 1777631413 | 27.78° C | 80% | 1006.7 hPa | - | - | - | - |
| 1777630809 | 27.78° C | 84% | 1006.5 hPa | - | - | - | - |
| 1777630210 | 27.78° C | 84% | 1006.6 hPa | - | - | - | - |
| 1777629609 | 27.78° C | 85% | 1006.5 hPa | - | - | - | - |
| 1777629008 | 28.33° C | 82% | 1006.4 hPa | - | - | - | - |
| 1777628414 | 30° C | 77% | 1006 hPa | - | - | - | - |
| 1777627814 | 30° C | 77% | 1005.8 hPa | - | - | - | - |
| 1777627209 | 30° C | 77% | 1005.5 hPa | - | - | - | - |
| 1777626611 | 30° C | 76% | 1005.7 hPa | - | - | - | - |
| 1777626009 | 30.56° C | 74% | 1005.7 hPa | - | - | - | - |
| 1777625409 | 31.67° C | 72% | 1005.6 hPa | - | - | - | - |
* Rain since midnight (hover to see other rain measurements)
** Current wind speed in m/s (hover to see current wind gust speed)